MMTP/TAP METAR and TAF weather

Enter ICAO airport designator
Station Type Date Time Source
MMTP METAR 2022/10/01 06:40 UTC NOAA

MMTP 010640Z 00000KT 7SM BKN030 BKN100 24/24 A2982 RMK 8/46/


Station Type Date Time Source
MMTP Decoded METAR 2022/10/01 06:40 UTC NOAA

Tapachula , Mexico (MMTP) 14-47N 092-23W
Oct 01, 2022 - 02:40 AM EDT / 2022.10.01 0640 UTC
Wind: Calm:0
Visibility: 7 mile(s):0
Sky conditions: mostly cloudy
Temperature: 75 F (24 C)
Dew Point: 75 F (24 C)
Relative Humidity: 100%
Pressure (altimeter): 29.82 in. Hg (1009 hPa)
ob: MMTP 010640Z 00000KT 7SM BKN030 BKN100 24/24 A2982 RMK 8/46/
cycle: 6

Station Type Date Time Source
MMTP TAF 2022/10/01 06:21 UTC NOAA

TAF MMTP 010517Z 0106/0212 00000KT P6SM BKN030CB
TEMPO 0106/0108 6SM -RA OVC020CB
FM011600 04005KT P6SM SCT030
BECMG 0120/0122 BKN030CB
TEMPO 0123/0203 5SM -TSRA
FM020300 00000KT P6SM SCT030

Example: see airport list